Time;durP1;ratioP1;P1;durP2;ratioP2;P2;SDS_P1;SDS_P2;PMS_P1;PMS_P2;Temp;Humidity;BMP_temperature;BMP_pressure;BME280_temperature;BME280_humidity;BME280_pressure;Samples;Min_cycle;Max_cycle;Signal;HPM_P1;HPM_P2
2021/07/19 00:01:37;;;;;;;8.27;4.40;;;20.50;99.90;;;;;;5062761;28;21077;-82
2021/07/19 00:04:05;;;;;;;4.13;3.67;;;20.50;99.90;;;;;;5058916;28;20459;-83
2021/07/19 00:06:32;;;;;;;4.00;3.30;;;20.50;99.90;;;;;;5058500;28;20456;-83
2021/07/19 00:09:00;;;;;;;3.93;3.53;;;20.50;99.90;;;;;;5054685;28;20467;-84
2021/07/19 00:11:27;;;;;;;6.73;4.03;;;20.40;99.90;;;;;;5053606;28;20837;-83
2021/07/19 00:13:54;;;;;;;4.00;3.50;;;20.40;99.90;;;;;;5058870;28;20508;-83
2021/07/19 00:16:21;;;;;;;6.10;4.40;;;20.40;99.90;;;;;;5059562;28;20486;-83
2021/07/19 00:18:48;;;;;;;4.13;3.67;;;20.40;99.90;;;;;;5057273;28;20470;-82
2021/07/19 00:21:15;;;;;;;5.13;3.50;;;20.40;99.90;;;;;;5063383;28;20953;-83
2021/07/19 00:23:42;;;;;;;4.70;3.73;;;20.40;99.90;;;;;;5055106;28;20465;-83
2021/07/19 00:26:10;;;;;;;5.53;3.80;;;20.30;99.90;;;;;;5057682;28;20463;-83
2021/07/19 00:28:37;;;;;;;10.33;4.07;;;20.30;99.90;;;;;;5052071;28;20458;-83
2021/07/19 00:31:04;;;;;;;4.53;4.10;;;20.30;99.90;;;;;;5063553;28;20454;-82
2021/07/19 00:33:31;;;;;;;5.10;4.37;;;20.30;99.90;;;;;;5054929;28;20503;-85
2021/07/19 00:35:58;;;;;;;4.40;4.00;;;20.30;99.90;;;;;;5058807;28;20833;-83
2021/07/19 00:38:25;;;;;;;7.30;4.03;;;20.30;99.90;;;;;;5056372;28;20487;-83
2021/07/19 00:40:52;;;;;;;6.00;5.00;;;20.20;99.90;;;;;;5054940;28;20640;-85
2021/07/19 00:43:20;;;;;;;4.77;4.13;;;20.30;99.90;;;;;;5059076;28;20500;-82
2021/07/19 00:45:47;;;;;;;7.27;5.13;;;20.30;99.90;;;;;;5059399;28;20555;-84
2021/07/19 00:48:15;;;;;;;5.87;5.37;;;20.20;99.90;;;;;;5055822;28;20463;-83
2021/07/19 00:50:42;;;;;;;10.10;4.27;;;20.20;99.90;;;;;;5057545;28;20935;-83
2021/07/19 00:53:09;;;;;;;8.10;4.53;;;20.20;99.90;;;;;;5056098;28;20502;-82
2021/07/19 00:55:41;;;;;;;4.33;3.93;;;20.20;99.90;;;;;;5051164;28;20464;-84
2021/07/19 00:58:10;;;;;;;5.93;4.80;;;20.20;99.90;;;;;;5053542;28;20459;-82
2021/07/19 01:00:45;;;;;;;5.30;4.60;;;20.20;99.90;;;;;;5058794;28;20545;-83
2021/07/19 01:03:12;;;;;;;6.60;4.70;;;20.20;99.90;;;;;;5058953;28;20486;-83
2021/07/19 01:05:42;;;;;;;6.97;5.30;;;20.20;99.90;;;;;;5063102;28;20946;-82
2021/07/19 01:08:09;;;;;;;7.63;5.37;;;20.20;99.90;;;;;;5050854;28;20452;-83
2021/07/19 01:10:38;;;;;;;5.33;4.10;;;20.20;99.90;;;;;;5053451;28;20823;-82
2021/07/19 01:13:06;;;;;;;4.90;4.30;;;20.20;99.90;;;;;;5054292;28;20455;-84
2021/07/19 01:15:36;;;;;;;5.40;3.90;;;20.20;99.90;;;;;;5057507;28;20455;-82
2021/07/19 01:18:05;;;;;;;5.70;5.20;;;20.20;99.90;;;;;;5055951;28;20922;-83
2021/07/19 01:20:38;;;;;;;6.93;4.73;;;20.20;99.90;;;;;;5052116;28;20586;-82
2021/07/19 01:23:47;;;;;;;6.43;4.40;;;20.20;99.90;;;;;;5064724;28;20554;-83
2021/07/19 01:26:29;;;;;;;4.90;4.50;;;20.20;99.90;;;;;;5046180;28;20794;-83
2021/07/19 01:28:59;;;;;;;5.03;4.00;;;20.10;99.90;;;;;;5059650;28;20459;-83
2021/07/19 01:31:28;;;;;;;8.13;4.87;;;20.10;99.90;;;;;;5058469;28;20462;-82
2021/07/19 01:33:58;;;;;;;5.77;4.60;;;20.10;99.90;;;;;;5053671;28;20464;-82
2021/07/19 01:36:30;;;;;;;4.60;4.20;;;20.00;99.90;;;;;;5053491;28;20482;-82
2021/07/19 01:38:59;;;;;;;5.70;4.67;;;20.10;99.90;;;;;;5055423;28;20490;-82
2021/07/19 01:41:27;;;;;;;7.07;4.80;;;;;;;;;;5059363;28;20463;-83
2021/07/19 01:43:56;;;;;;;7.03;4.63;;;20.00;99.90;;;;;;5058831;28;20458;-84
2021/07/19 01:46:25;;;;;;;6.30;4.80;;;20.00;99.90;;;;;;5060505;28;20555;-82
2021/07/19 01:48:53;;;;;;;14.00;5.17;;;20.00;99.90;;;;;;5057862;28;20463;-82
2021/07/19 01:51:21;;;;;;;5.73;4.90;;;20.00;99.90;;;;;;5056728;28;20554;-82
2021/07/19 01:53:49;;;;;;;5.80;4.77;;;20.00;99.90;;;;;;5052397;28;20473;-81
2021/07/19 01:56:17;;;;;;;9.30;4.87;;;19.90;99.90;;;;;;5056653;28;20553;-82
2021/07/19 01:58:44;;;;;;;9.93;4.47;;;19.90;99.90;;;;;;5050601;28;20448;-83
2021/07/19 02:01:11;;;;;;;6.13;4.57;;;19.90;99.90;;;;;;5053478;28;20943;-82
2021/07/19 02:03:40;;;;;;;4.30;3.90;;;19.70;99.90;;;;;;5057121;28;20459;-82
2021/07/19 02:06:09;;;;;;;5.27;3.77;;;19.80;99.90;;;;;;5052855;28;20476;-83
2021/07/19 02:08:38;;;;;;;4.33;4.00;;;19.80;99.90;;;;;;5053654;28;20461;-84
2021/07/19 02:11:06;;;;;;;6.83;3.57;;;19.70;99.90;;;;;;5054326;28;20829;-82
2021/07/19 02:13:35;;;;;;;4.07;3.43;;;19.60;99.90;;;;;;5048844;28;20498;-83
2021/07/19 02:16:02;;;;;;;6.60;3.57;;;19.60;99.90;;;;;;5064237;28;20455;-83
2021/07/19 02:18:33;;;;;;;7.20;4.40;;;19.50;99.90;;;;;;5054120;28;20935;-82
2021/07/19 02:21:05;;;;;;;6.77;3.60;;;19.40;99.90;;;;;;5053773;28;20471;-82
2021/07/19 02:23:32;;;;;;;4.60;3.90;;;19.40;99.90;;;;;;5049108;28;20512;-82
2021/07/19 02:26:01;;;;;;;3.60;3.30;;;19.30;99.90;;;;;;5056812;28;20802;-82
2021/07/19 02:28:28;;;;;;;6.10;4.10;;;19.30;99.90;;;;;;5059766;28;20473;-82
2021/07/19 02:30:56;;;;;;;4.43;4.03;;;19.20;99.90;;;;;;5053697;28;20470;-83
2021/07/19 02:33:24;;;;;;;4.47;3.83;;;19.20;99.90;;;;;;5056181;28;20479;-82
2021/07/19 02:35:52;;;;;;;6.20;4.40;;;19.20;99.90;;;;;;5053441;28;20462;-82
2021/07/19 02:38:21;;;;;;;5.07;4.63;;;19.10;99.90;;;;;;5052604;28;20486;-83
2021/07/19 02:40:51;;;;;;;6.63;4.50;;;19.10;99.90;;;;;;5052636;28;20919;-84
2021/07/19 02:43:22;;;;;;;5.37;4.83;;;19.10;99.90;;;;;;5057505;28;20534;-83
2021/07/19 02:45:53;;;;;;;7.23;5.20;;;19.00;99.90;;;;;;5062527;28;20808;-82
2021/07/19 02:48:22;;;;;;;5.90;5.40;;;19.00;99.90;;;;;;5061632;28;20454;-83
2021/07/19 02:50:54;;;;;;;6.07;4.70;;;19.00;99.90;;;;;;5058192;28;20463;-83
2021/07/19 02:53:24;;;;;;;5.60;5.00;;;19.00;99.90;;;;;;5053593;28;20501;-83
2021/07/19 02:55:51;;;;;;;5.97;5.00;;;19.00;99.90;;;;;;5057728;28;20535;-83
2021/07/19 02:58:19;;;;;;;5.00;4.40;;;18.90;99.90;;;;;;5055151;28;20509;-83
2021/07/19 03:00:48;;;;;;;5.60;5.00;;;18.90;99.90;;;;;;5060037;28;20461;-83
2021/07/19 03:03:18;;;;;;;9.73;4.40;;;18.90;99.90;;;;;;5052832;28;20475;-84
2021/07/19 03:05:51;;;;;;;5.93;4.20;;;18.80;99.90;;;;;;5054954;28;20463;-83
2021/07/19 03:08:19;;;;;;;5.70;4.03;;;18.80;99.90;;;;;;5053903;28;20487;-83
2021/07/19 03:10:52;;;;;;;5.33;4.33;;;18.80;99.90;;;;;;5052239;28;20462;-84
2021/07/19 03:13:25;;;;;;;4.00;3.70;;;18.70;99.90;;;;;;5051255;28;20477;-83
2021/07/19 03:15:53;;;;;;;4.37;3.97;;;18.70;99.90;;;;;;5053702;28;20569;-82
2021/07/19 03:18:21;;;;;;;5.23;4.03;;;18.60;99.90;;;;;;5059251;28;20972;-82
2021/07/19 03:20:48;;;;;;;4.40;4.00;;;18.60;99.90;;;;;;5056069;28;20457;-82
2021/07/19 03:23:17;;;;;;;5.73;4.07;;;18.50;99.90;;;;;;5055292;28;20479;-83
2021/07/19 03:25:47;;;;;;;9.00;5.20;;;18.50;99.90;;;;;;5053802;28;20485;-82
2021/07/19 03:28:14;;;;;;;7.40;5.23;;;18.50;99.90;;;;;;5053296;28;20459;-82
2021/07/19 03:30:43;;;;;;;4.87;4.43;;;18.40;99.90;;;;;;5051906;28;20461;-81
2021/07/19 03:33:11;;;;;;;5.20;4.70;;;18.40;99.90;;;;;;5054270;28;20461;-82
2021/07/19 03:35:39;;;;;;;7.10;4.70;;;18.40;99.90;;;;;;5054174;28;20995;-82
2021/07/19 03:38:06;;;;;;;6.60;5.60;;;18.40;99.90;;;;;;5060668;28;20500;-84
2021/07/19 03:40:33;;;;;;;5.00;4.60;;;18.30;99.90;;;;;;5053250;28;20471;-81
2021/07/19 03:43:02;;;;;;;6.17;4.30;;;18.40;99.90;;;;;;5055721;28;20821;-82
2021/07/19 03:45:30;;;;;;;6.63;4.70;;;18.30;99.90;;;;;;5053232;28;20466;-81
2021/07/19 03:47:57;;;;;;;5.67;5.17;;;18.30;99.90;;;;;;5057094;28;20477;-82
2021/07/19 03:50:24;;;;;;;5.90;4.73;;;18.30;99.90;;;;;;5053140;28;20457;-82
2021/07/19 03:52:52;;;;;;;6.03;5.43;;;18.40;99.90;;;;;;5049259;28;20568;-83
2021/07/19 03:55:19;;;;;;;7.00;5.03;;;18.30;99.90;;;;;;5052401;28;20486;-82
2021/07/19 03:57:46;;;;;;;6.27;4.90;;;18.40;99.90;;;;;;5053221;28;20609;-83
2021/07/19 04:00:16;;;;;;;9.07;4.50;;;18.40;99.90;;;;;;5053716;28;20450;-83
2021/07/19 04:02:49;;;;;;;6.13;5.40;;;18.30;99.90;;;;;;5053320;28;20459;-82
2021/07/19 04:05:17;;;;;;;6.73;5.13;;;18.30;99.90;;;;;;5045447;28;20939;-82
2021/07/19 04:07:46;;;;;;;5.67;4.70;;;18.30;99.90;;;;;;5050233;28;20473;-81
2021/07/19 04:10:14;;;;;;;5.97;4.93;;;18.30;99.90;;;;;;5061116;28;20458;-82
2021/07/19 04:12:43;;;;;;;5.47;4.97;;;18.30;99.90;;;;;;5053043;28;20467;-82
2021/07/19 04:15:10;;;;;;;7.50;5.27;;;18.30;99.90;;;;;;5052291;28;20470;-81
2021/07/19 04:17:39;;;;;;;8.67;5.60;;;18.30;99.90;;;;;;5051216;28;21307;-83
2021/07/19 04:20:10;;;;;;;6.53;5.60;;;18.40;99.90;;;;;;5052503;28;20500;-81
2021/07/19 04:22:37;;;;;;;9.03;6.00;;;18.40;99.90;;;;;;5049977;28;20463;-83
2021/07/19 04:25:06;;;;;;;5.17;4.67;;;18.40;99.90;;;;;;5046928;28;21007;-82
2021/07/19 04:27:34;;;;;;;7.10;4.70;;;18.30;99.90;;;;;;5058325;28;20589;-82
2021/07/19 04:30:01;;;;;;;5.87;5.37;;;18.30;99.90;;;;;;5055165;28;21008;-81
2021/07/19 04:32:28;;;;;;;5.53;5.07;;;18.40;99.90;;;;;;5056104;28;20780;-83
2021/07/19 04:34:57;;;;;;;5.00;4.50;;;18.30;99.90;;;;;;5060586;28;20461;-83
2021/07/19 04:37:23;;;;;;;4.33;3.93;;;18.30;99.90;;;;;;5059103;28;20501;-82
2021/07/19 04:39:51;;;;;;;8.40;5.43;;;18.30;99.90;;;;;;5059518;28;20471;-84
2021/07/19 04:42:18;;;;;;;8.87;5.10;;;18.30;99.90;;;;;;5059711;28;20561;-81
2021/07/19 04:44:45;;;;;;;5.93;5.27;;;18.30;99.90;;;;;;5056542;28;20805;-83
2021/07/19 04:47:12;;;;;;;7.37;5.23;;;18.30;99.90;;;;;;5060607;28;20466;-83
2021/07/19 04:49:39;;;;;;;5.63;5.07;;;18.30;99.90;;;;;;5056088;28;20475;-81
2021/07/19 04:52:09;;;;;;;6.63;5.00;;;18.30;99.90;;;;;;5060130;28;20572;-82
2021/07/19 04:54:38;;;;;;;10.20;5.80;;;18.30;99.90;;;;;;5055539;28;20463;-83
2021/07/19 04:57:09;;;;;;;8.07;5.57;;;18.40;99.90;;;;;;5052856;28;20864;-81
2021/07/19 04:59:41;;;;;;;7.90;6.90;;;18.30;99.90;;;;;;5055490;28;20469;-83
2021/07/19 05:02:14;;;;;;;7.07;6.47;;;18.40;99.90;;;;;;5055087;28;20473;-83
2021/07/19 05:04:42;;;;;;;9.77;8.40;;;18.40;99.90;;;;;;5051175;28;20462;-82
2021/07/19 05:07:13;;;;;;;10.70;6.90;;;18.40;99.90;;;;;;5062904;28;20460;-83
2021/07/19 05:09:41;;;;;;;8.73;7.83;;;18.40;99.90;;;;;;5056472;28;20498;-83
2021/07/19 05:12:12;;;;;;;9.27;7.80;;;18.40;99.90;;;;;;5053428;28;20467;-82
2021/07/19 05:14:40;;;;;;;10.37;7.80;;;18.50;99.90;;;;;;5056420;28;20477;-82
2021/07/19 05:17:10;;;;;;;11.33;8.13;;;18.50;99.90;;;;;;5060981;28;20551;-84
2021/07/19 05:19:38;;;;;;;10.03;8.33;;;18.50;99.90;;;;;;5052332;28;20859;-82
2021/07/19 05:22:11;;;;;;;10.60;7.90;;;18.60;99.90;;;;;;5061274;28;21025;-82
2021/07/19 05:24:38;;;;;;;9.67;7.83;;;18.60;99.90;;;;;;5058106;28;20546;-83
2021/07/19 05:27:07;;;;;;;9.83;7.87;;;18.70;99.90;;;;;;5054610;28;21095;-84
2021/07/19 05:29:35;;;;;;;13.77;9.40;;;18.70;99.90;;;;;;5056228;28;20530;-90
2021/07/19 05:32:02;;;;;;;10.10;7.80;;;18.80;99.90;;;;;;5055171;28;20494;-86
2021/07/19 05:34:29;;;;;;;10.83;7.70;;;18.80;99.90;;;;;;5059700;28;20490;-85
2021/07/19 05:36:56;;;;;;;13.10;9.63;;;18.90;99.90;;;;;;5057342;28;20828;-83
2021/07/19 05:39:24;;;;;;;11.73;8.73;;;18.90;99.90;;;;;;5056279;28;20499;-82
2021/07/19 05:41:51;;;;;;;16.30;10.37;;;19.00;99.90;;;;;;5054582;28;20552;-82
2021/07/19 05:44:19;;;;;;;11.13;8.30;;;19.00;99.90;;;;;;5052065;28;20482;-83
2021/07/19 05:46:45;;;;;;;12.73;8.03;;;19.00;99.90;;;;;;5059156;28;20546;-82
2021/07/19 05:49:13;;;;;;;11.57;7.93;;;19.10;99.90;;;;;;5062588;28;20792;-83
2021/07/19 05:51:40;;;;;;;15.90;8.80;;;19.10;99.90;;;;;;5055000;28;20451;-81
2021/07/19 05:54:06;;;;;;;16.73;11.50;;;19.20;99.90;;;;;;5053750;28;20460;-82
2021/07/19 05:56:36;;;;;;;22.17;17.90;;;19.30;99.90;;;;;;5057818;28;20568;-83
2021/07/19 05:59:03;;;;;;;14.30;10.87;;;19.30;99.90;;;;;;5054933;28;20488;-82
2021/07/19 06:01:30;;;;;;;18.87;14.03;;;19.30;99.90;;;;;;5049213;28;20880;-83
2021/07/19 06:03:59;;;;;;;23.53;16.43;;;19.30;99.90;;;;;;5055015;28;20690;-83
2021/07/19 06:06:26;;;;;;;15.27;10.77;;;19.40;99.90;;;;;;5056194;28;20552;-82
2021/07/19 06:08:53;;;;;;;11.60;8.73;;;19.50;99.90;;;;;;5058369;28;20454;-83
2021/07/19 06:11:20;;;;;;;13.60;9.57;;;19.50;99.90;;;;;;5055723;28;20459;-83
2021/07/19 06:13:49;;;;;;;11.33;8.53;;;19.60;99.90;;;;;;5055852;28;20520;-83
2021/07/19 06:16:15;;;;;;;12.00;8.53;;;19.60;99.90;;;;;;5056500;28;20518;-83
2021/07/19 06:18:42;;;;;;;15.53;9.20;;;19.70;99.90;;;;;;5056409;28;20486;-82
2021/07/19 06:21:10;;;;;;;14.07;9.20;;;19.70;99.90;;;;;;5056027;28;20558;-83
2021/07/19 06:23:36;;;;;;;8.30;7.07;;;19.80;99.90;;;;;;5054747;28;20469;-83
2021/07/19 06:26:03;;;;;;;11.17;8.37;;;19.90;99.90;;;;;;5054716;28;20458;-82
2021/07/19 06:28:30;;;;;;;13.23;8.33;;;19.90;99.90;;;;;;5056047;28;20558;-83
2021/07/19 06:30:59;;;;;;;11.47;7.67;;;20.00;99.90;;;;;;5055321;28;21010;-83
2021/07/19 06:33:26;;;;;;;9.03;7.37;;;20.10;99.90;;;;;;5052173;28;20542;-84
2021/07/19 06:35:53;;;;;;;13.87;8.30;;;20.10;99.90;;;;;;5055266;28;20478;-83
2021/07/19 06:38:20;;;;;;;11.07;7.70;;;20.20;99.90;;;;;;5056189;28;20892;-83
2021/07/19 06:40:47;;;;;;;15.37;7.60;;;20.20;99.90;;;;;;5054122;28;20977;-84
2021/07/19 06:43:14;;;;;;;11.93;8.27;;;20.30;99.90;;;;;;5053925;28;20474;-84
2021/07/19 06:45:43;;;;;;;9.50;7.70;;;20.30;99.90;;;;;;5053685;28;20551;-83
2021/07/19 06:48:12;;;;;;;13.17;8.20;;;20.40;99.90;;;;;;5055650;28;20942;-82
2021/07/19 06:50:38;;;;;;;11.07;8.00;;;20.50;99.90;;;;;;5052971;28;20950;-82
2021/07/19 06:53:05;;;;;;;10.37;7.60;;;20.50;99.90;;;;;;5054930;28;20486;-83
2021/07/19 06:55:32;;;;;;;10.80;8.37;;;20.60;99.90;;;;;;5051268;28;20490;-85
2021/07/19 06:57:59;;;;;;;10.17;8.20;;;20.60;99.90;;;;;;5052197;28;20565;-83
2021/07/19 07:00:26;;;;;;;10.43;7.97;;;20.70;99.90;;;;;;5055787;28;20458;-83
2021/07/19 07:02:53;;;;;;;11.83;8.70;;;20.70;99.90;;;;;;5051245;28;20478;-83
2021/07/19 07:05:21;;;;;;;9.43;8.03;;;20.80;99.90;;;;;;5055190;28;20458;-83
2021/07/19 07:07:49;;;;;;;10.93;8.87;;;20.80;99.90;;;;;;5054954;28;20469;-83
2021/07/19 07:10:16;;;;;;;10.10;7.47;;;20.80;99.90;;;;;;5054111;28;20993;-84
2021/07/19 07:12:43;;;;;;;9.40;7.57;;;20.80;99.90;;;;;;5053704;28;20462;-83
2021/07/19 07:15:11;;;;;;;9.90;7.90;;;20.90;99.90;;;;;;5055718;28;20457;-84
2021/07/19 07:17:40;;;;;;;9.63;7.60;;;20.90;99.90;;;;;;5057289;28;20546;-84
2021/07/19 07:20:08;;;;;;;10.33;7.43;;;20.90;99.90;;;;;;5056457;28;20462;-82
2021/07/19 07:22:36;;;;;;;10.07;7.73;;;21.00;99.90;;;;;;5056878;28;21136;-84
2021/07/19 07:25:04;;;;;;;11.40;7.10;;;21.00;99.90;;;;;;5056253;28;20466;-83
2021/07/19 07:27:31;;;;;;;10.47;7.80;;;21.00;99.90;;;;;;5058407;28;20469;-84
2021/07/19 07:29:58;;;;;;;10.57;7.03;;;21.10;99.90;;;;;;5054995;28;20879;-85
2021/07/19 07:32:25;;;;;;;11.70;8.60;;;21.10;99.90;;;;;;5053804;28;20546;-83
2021/07/19 07:34:52;;;;;;;9.43;7.90;;;21.10;99.90;;;;;;5055832;28;20463;-83
2021/07/19 07:37:19;;;;;;;11.10;8.80;;;21.10;99.90;;;;;;5055384;28;20848;-84
2021/07/19 07:39:47;;;;;;;10.13;8.23;;;21.20;99.90;;;;;;5057953;28;20589;-84
2021/07/19 07:42:15;;;;;;;8.90;8.00;;;21.20;99.90;;;;;;5051510;28;20815;-83
2021/07/19 07:44:42;;;;;;;17.63;15.17;;;21.20;99.90;;;;;;5054864;28;20790;-83
2021/07/19 07:47:09;;;;;;;13.60;11.83;;;21.20;99.90;;;;;;5059462;28;20466;-83
2021/07/19 07:49:37;;;;;;;24.43;17.80;;;21.20;99.90;;;;;;5050745;28;20458;-82
2021/07/19 07:52:04;;;;;;;9.33;8.27;;;21.30;99.90;;;;;;5049122;28;21286;-83
2021/07/19 07:54:31;;;;;;;9.77;7.10;;;21.30;99.90;;;;;;5048992;28;20459;-83
2021/07/19 07:56:59;;;;;;;10.63;7.67;;;21.30;99.90;;;;;;5051073;28;20452;-83
2021/07/19 07:59:26;;;;;;;14.13;8.10;;;21.40;99.90;;;;;;5044638;28;20527;-84
2021/07/19 08:01:53;;;;;;;9.60;8.37;;;21.40;99.90;;;;;;5052219;28;20469;-84
2021/07/19 08:04:20;;;;;;;8.53;7.30;;;21.50;99.90;;;;;;5052404;28;20961;-84
2021/07/19 08:06:47;;;;;;;9.80;7.70;;;21.60;99.90;;;;;;5057056;28;20816;-84
2021/07/19 08:09:14;;;;;;;10.17;8.50;;;21.60;99.90;;;;;;5054042;28;20548;-82
2021/07/19 08:11:43;;;;;;;14.00;7.83;;;21.70;99.90;;;;;;5053191;28;20985;-84
2021/07/19 08:14:11;;;;;;;13.30;8.03;;;21.70;99.90;;;;;;5057026;28;20553;-83
2021/07/19 08:16:39;;;;;;;10.23;8.50;;;21.70;99.90;;;;;;5052527;28;20902;-83
2021/07/19 08:19:07;;;;;;;8.17;7.20;;;21.80;99.90;;;;;;5052575;28;20486;-83
2021/07/19 08:21:35;;;;;;;10.20;8.13;;;21.80;99.90;;;;;;5058896;28;20542;-84
2021/07/19 08:24:02;;;;;;;9.50;8.00;;;21.80;99.90;;;;;;5057619;28;20462;-85
2021/07/19 08:26:29;;;;;;;9.07;7.93;;;21.90;99.90;;;;;;5054696;28;20452;-84
2021/07/19 08:28:56;;;;;;;9.17;7.97;;;21.90;99.90;;;;;;5052794;28;20477;-83
2021/07/19 08:31:25;;;;;;;11.20;8.30;;;21.90;99.90;;;;;;5054049;28;20537;-82
2021/07/19 08:33:52;;;;;;;12.60;8.87;;;22.00;99.90;;;;;;5054772;28;20484;-82
2021/07/19 08:36:19;;;;;;;11.50;9.53;;;22.00;99.90;;;;;;5053060;28;21110;-85
2021/07/19 08:38:47;;;;;;;11.00;8.93;;;22.00;99.90;;;;;;5056190;28;20491;-82
2021/07/19 08:41:15;;;;;;;12.80;9.63;;;22.00;99.90;;;;;;5053659;28;20562;-81
2021/07/19 08:43:42;;;;;;;15.40;9.90;;;22.00;99.90;;;;;;5054612;28;20460;-82
2021/07/19 08:46:11;;;;;;;13.40;11.00;;;22.00;99.90;;;;;;5053691;28;20495;-84
2021/07/19 08:48:40;;;;;;;18.03;14.30;;;22.00;99.90;;;;;;5058364;28;20471;-83
2021/07/19 08:51:08;;;;;;;14.30;12.23;;;22.00;99.90;;;;;;5051812;28;20491;-82
2021/07/19 08:53:37;;;;;;;13.00;11.70;;;22.00;99.90;;;;;;5049003;28;20562;-83
2021/07/19 08:56:06;;;;;;;16.07;13.63;;;21.90;99.90;;;;;;5055288;28;20455;-82
2021/07/19 08:58:34;;;;;;;18.33;14.87;;;21.90;99.90;;;;;;5047665;28;20678;-82
2021/07/19 09:01:02;;;;;;;17.67;15.43;;;21.90;99.90;;;;;;5053657;28;20530;-82
2021/07/19 09:03:29;;;;;;;16.57;13.57;;;21.90;99.90;;;;;;5056020;28;20941;-84
2021/07/19 09:05:58;;;;;;;18.00;14.87;;;22.00;99.90;;;;;;5052469;28;20486;-83
2021/07/19 09:08:25;;;;;;;18.93;15.07;;;21.90;99.90;;;;;;5055855;28;20506;-84
2021/07/19 09:10:52;;;;;;;19.43;15.03;;;21.90;99.90;;;;;;5054033;28;20467;-84
2021/07/19 09:13:20;;;;;;;17.90;15.63;;;21.90;99.90;;;;;;5054972;28;20469;-83
2021/07/19 09:15:47;;;;;;;17.07;14.57;;;21.90;99.90;;;;;;5051687;28;20451;-85
2021/07/19 09:18:24;;;;;;;17.70;15.43;;;21.90;99.90;;;;;;5055677;28;20458;-82
2021/07/19 09:20:51;;;;;;;18.90;15.50;;;22.00;99.90;;;;;;5051758;28;20469;-81
2021/07/19 09:23:27;;;;;;;25.00;18.53;;;22.00;99.90;;;;;;5052394;28;20490;-83
2021/07/19 09:25:55;;;;;;;25.40;22.50;;;22.10;99.90;;;;;;5053187;28;20462;-84
2021/07/19 09:28:28;;;;;;;29.53;22.80;;;22.10;99.90;;;;;;5047377;28;20490;-83
2021/07/19 09:30:55;;;;;;;25.30;21.30;;;22.00;99.90;;;;;;5058795;28;20453;-82
2021/07/19 09:33:22;;;;;;;24.13;20.40;;;22.00;99.90;;;;;;5053134;28;20456;-82
2021/07/19 09:35:53;;;;;;;58.93;47.27;;;22.10;99.90;;;;;;5051603;28;20493;-83
2021/07/19 09:38:21;;;;;;;37.83;29.47;;;22.10;99.90;;;;;;5050791;28;20538;-83
2021/07/19 09:40:56;;;;;;;30.70;27.03;;;22.00;99.90;;;;;;5053417;28;20459;-83
2021/07/19 09:43:26;;;;;;;30.00;26.07;;;22.10;99.90;;;;;;5049932;28;20468;-84
2021/07/19 09:45:57;;;;;;;25.33;19.67;;;22.10;99.90;;;;;;5052759;28;20460;-82
2021/07/19 09:48:24;;;;;;;22.13;17.37;;;22.10;99.90;;;;;;5051426;28;20462;-83
2021/07/19 09:50:53;;;;;;;21.13;17.07;;;22.00;99.90;;;;;;5052632;28;20543;-83
2021/07/19 09:53:29;;;;;;;23.60;20.27;;;22.00;99.90;;;;;;5057731;28;20482;-84
2021/07/19 09:56:07;;;;;;;24.00;20.60;;;21.90;99.90;;;;;;5050080;28;20935;-83
2021/07/19 09:58:34;;;;;;;22.10;19.23;;;21.90;99.90;;;;;;5050789;28;20548;-83
2021/07/19 10:01:01;;;;;;;20.50;18.00;;;21.90;99.90;;;;;;5055553;28;20451;-83
2021/07/19 10:03:30;;;;;;;20.27;17.77;;;21.90;99.90;;;;;;5046051;28;20785;-83
2021/07/19 10:06:05;;;;;;;18.67;16.97;;;22.00;99.90;;;;;;5047612;28;20459;-83
2021/07/19 10:08:34;;;;;;;19.80;16.33;;;22.00;99.90;;;;;;5053040;28;20467;-83
2021/07/19 10:11:01;;;;;;;22.23;16.47;;;21.90;99.90;;;;;;5052617;28;20466;-82
2021/07/19 10:13:35;;;;;;;18.20;16.30;;;22.00;99.90;;;;;;5048774;28;20541;-83
2021/07/19 10:16:03;;;;;;;16.17;13.43;;;22.00;99.90;;;;;;5052961;28;20463;-84
2021/07/19 10:18:30;;;;;;;19.87;13.97;;;22.00;99.90;;;;;;5050015;28;20955;-83
2021/07/19 10:20:58;;;;;;;15.60;11.70;;;22.00;99.90;;;;;;5054676;28;20590;-83
2021/07/19 10:23:25;;;;;;;18.93;12.50;;;21.90;99.90;;;;;;5051748;28;20455;-84
2021/07/19 10:25:53;;;;;;;17.27;13.83;;;21.80;99.90;;;;;;5050693;28;20467;-83
2021/07/19 10:28:20;;;;;;;14.77;11.83;;;21.80;99.90;;;;;;5050848;28;20472;-83
2021/07/19 10:30:47;;;;;;;15.97;13.43;;;21.80;99.90;;;;;;5056128;28;20459;-83
2021/07/19 10:33:14;;;;;;;17.87;15.97;;;21.80;99.90;;;;;;5054891;28;20463;-83
2021/07/19 10:35:43;;;;;;;23.77;17.73;;;21.80;99.90;;;;;;5049052;28;20464;-83
2021/07/19 10:38:15;;;;;;;20.53;17.63;;;21.90;99.90;;;;;;5045366;28;20486;-84
2021/07/19 10:40:44;;;;;;;21.53;16.87;;;21.80;99.90;;;;;;5053210;28;20517;-82
2021/07/19 10:43:16;;;;;;;17.30;13.90;;;21.80;99.90;;;;;;5053629;28;20462;-82
2021/07/19 10:45:45;;;;;;;19.50;15.00;;;21.80;99.90;;;;;;5049154;28;20537;-84
2021/07/19 10:48:23;;;;;;;16.40;13.50;;;21.70;99.90;;;;;;5057842;28;20459;-83
2021/07/19 10:50:50;;;;;;;19.10;13.73;;;21.80;99.90;;;;;;5048850;28;20606;-83
2021/07/19 10:53:20;;;;;;;15.20;13.40;;;21.90;99.90;;;;;;5054971;28;20486;-84
2021/07/19 10:55:59;;;;;;;14.77;13.17;;;21.90;99.90;;;;;;5049728;28;20498;-82
2021/07/19 10:58:37;;;;;;;16.80;14.67;;;21.90;99.90;;;;;;5056513;28;20765;-82
2021/07/19 11:01:05;;;;;;;17.93;13.10;;;21.90;99.90;;;;;;5055558;28;20808;-83
2021/07/19 11:03:39;;;;;;;17.60;13.63;;;22.00;99.90;;;;;;5054086;28;20478;-82
2021/07/19 11:06:06;;;;;;;20.07;14.00;;;21.90;99.90;;;;;;5053942;28;20456;-83
2021/07/19 11:08:33;;;;;;;19.50;15.57;;;22.00;99.90;;;;;;5050939;28;20468;-83
2021/07/19 11:11:00;;;;;;;19.03;14.37;;;22.00;99.90;;;;;;5052539;28;20473;-83
2021/07/19 11:13:32;;;;;;;21.70;17.53;;;22.10;99.90;;;;;;5048276;28;20964;-82
2021/07/19 11:15:59;;;;;;;21.93;15.80;;;22.10;99.90;;;;;;5048667;28;20486;-82
2021/07/19 11:18:28;;;;;;;22.83;19.60;;;22.20;99.90;;;;;;5056273;28;20587;-83
2021/07/19 11:20:57;;;;;;;26.60;20.87;;;22.20;99.90;;;;;;5048739;28;20881;-84
2021/07/19 11:23:29;;;;;;;25.53;22.47;;;22.30;99.90;;;;;;5054196;28;20516;-83
2021/07/19 11:25:57;;;;;;;28.90;23.57;;;22.40;99.90;;;;;;5050664;28;20509;-83
2021/07/19 11:28:27;;;;;;;27.27;22.83;;;22.50;99.90;;;;;;5049842;28;20550;-83
2021/07/19 11:31:11;;;;;;;27.70;22.67;;;22.50;99.90;;;;;;5052474;28;20486;-83
2021/07/19 11:33:40;;;;;;;31.27;23.00;;;22.70;99.90;;;;;;5052858;28;20462;-84
2021/07/19 11:36:18;;;;;;;28.10;22.27;;;22.70;99.90;;;;;;5052632;28;20842;-83
2021/07/19 11:38:45;;;;;;;23.80;19.67;;;22.80;99.90;;;;;;5054632;28;20581;-83
2021/07/19 11:41:18;;;;;;;21.70;18.43;;;22.90;99.90;;;;;;5058258;28;20581;-84
2021/07/19 11:43:46;;;;;;;20.93;18.37;;;23.00;99.90;;;;;;5050873;28;20464;-82
2021/07/19 11:46:24;;;;;;;17.80;15.90;;;22.90;99.90;;;;;;5054469;28;20462;-83
2021/07/19 11:48:51;;;;;;;22.23;15.37;;;23.00;99.90;;;;;;5059674;28;20446;-85
2021/07/19 11:51:21;;;;;;;18.83;16.87;;;23.10;99.90;;;;;;5048970;28;20459;-82
2021/07/19 11:53:48;;;;;;;19.50;16.87;;;23.10;99.90;;;;;;5052479;28;20475;-82
2021/07/19 11:56:15;;;;;;;18.30;15.73;;;23.20;99.90;;;;;;5057724;28;20517;-83
2021/07/19 11:58:43;;;;;;;18.97;16.90;;;23.30;99.90;;;;;;5052603;28;20462;-84
2021/07/19 12:01:11;;;;;;;18.60;15.47;;;23.30;99.90;;;;;;5060810;28;20494;-83
2021/07/19 12:03:40;;;;;;;16.13;14.43;;;23.40;99.90;;;;;;5059604;28;20462;-83
2021/07/19 12:06:08;;;;;;;16.33;14.20;;;23.40;99.90;;;;;;5052611;28;20455;-83
2021/07/19 12:08:36;;;;;;;14.70;12.77;;;23.30;99.90;;;;;;5052662;28;20529;-82
2021/07/19 12:11:05;;;;;;;15.10;13.50;;;23.30;99.90;;;;;;5053886;28;20471;-84
2021/07/19 12:13:34;;;;;;;18.30;14.23;;;23.30;99.90;;;;;;5048202;28;20455;-83
2021/07/19 12:16:02;;;;;;;14.27;12.77;;;23.20;99.90;;;;;;5055761;28;20463;-83
2021/07/19 12:18:31;;;;;;;17.10;12.60;;;23.20;99.90;;;;;;5055307;28;20460;-82
2021/07/19 12:21:02;;;;;;;14.67;13.17;;;23.20;99.90;;;;;;5054535;28;20541;-83
2021/07/19 12:23:43;;;;;;;13.87;12.40;;;23.40;99.90;;;;;;5056708;28;20462;-83
2021/07/19 12:26:12;;;;;;;15.40;13.57;;;23.40;99.90;;;;;;5054941;28;20544;-85
2021/07/19 12:28:50;;;;;;;17.17;12.50;;;23.50;99.90;;;;;;5053126;28;20454;-85
2021/07/19 12:31:24;;;;;;;13.97;12.57;;;23.50;99.90;;;;;;5056693;28;21073;-83
2021/07/19 12:33:51;;;;;;;14.70;12.60;;;23.50;99.90;;;;;;5055589;28;20478;-83
2021/07/19 12:36:20;;;;;;;13.60;11.90;;;23.40;99.90;;;;;;5063245;28;20818;-84
2021/07/19 12:38:48;;;;;;;13.87;12.27;;;23.60;99.90;;;;;;5060687;28;20535;-82
2021/07/19 12:41:16;;;;;;;14.17;10.93;;;23.70;99.90;;;;;;5052577;28;20494;-83
2021/07/19 12:43:44;;;;;;;12.63;10.83;;;23.80;99.90;;;;;;5046655;28;20487;-83
2021/07/19 12:46:13;;;;;;;12.83;10.43;;;23.90;99.90;;;;;;5053513;28;20463;-83